createdAt,value
2023-03-21T00:03:01.687Z,14.65
2023-03-21T00:07:06.353Z,15.13
2023-03-21T00:11:12.236Z,14.63
2023-03-21T00:15:15.336Z,14.98
2023-03-21T00:23:22.244Z,14.80
2023-03-21T00:27:47.279Z,13.68
2023-03-21T00:31:47.965Z,14.55
2023-03-21T00:36:06.451Z,15.60
2023-03-21T00:40:25.495Z,15.63
2023-03-21T00:44:29.569Z,14.82
2023-03-21T00:48:32.913Z,14.45
2023-03-21T00:52:40.979Z,16.00
2023-03-21T00:56:46.804Z,13.80
2023-03-21T01:00:50.852Z,13.00
2023-03-21T01:04:54.559Z,12.80
2023-03-21T01:08:57.738Z,14.95
2023-03-21T01:13:02.628Z,13.63
2023-03-21T01:17:06.149Z,13.20
2023-03-21T01:21:11.873Z,13.30
2023-03-21T01:25:22.299Z,13.10
2023-03-21T01:29:27.291Z,12.15
2023-03-21T01:33:31.013Z,14.18
2023-03-21T01:37:34.093Z,13.68
2023-03-21T01:41:44.535Z,14.35
2023-03-21T01:46:23.896Z,14.70
2023-03-21T01:50:27.932Z,13.27
2023-03-21T01:54:35.607Z,13.10
2023-03-21T01:58:46.209Z,13.55
2023-03-21T02:03:06.175Z,16.02
2023-03-21T02:07:18.112Z,13.77
2023-03-21T02:11:22.572Z,13.93
2023-03-21T02:15:29.656Z,14.73
2023-03-21T02:20:23.383Z,13.73
2023-03-21T02:25:10.794Z,14.15
2023-03-21T02:30:00.345Z,13.60
2023-03-21T02:34:44.434Z,13.52
2023-03-21T02:38:56.486Z,13.45
2023-03-21T02:43:11.625Z,13.88
2023-03-21T02:47:26.251Z,13.02
2023-03-21T02:51:31.750Z,13.18
2023-03-21T02:55:38.759Z,12.80
2023-03-21T02:59:53.188Z,13.63
2023-03-21T03:03:56.865Z,14.65
2023-03-21T03:08:17.154Z,17.00
2023-03-21T03:12:31.535Z,15.63
2023-03-21T03:16:46.712Z,16.23
2023-03-21T03:21:02.752Z,16.45
2023-03-21T03:25:21.290Z,20.80
2023-03-21T03:29:32.424Z,20.80
2023-03-21T03:33:38.293Z,13.75
2023-03-21T03:37:43.182Z,12.82
2023-03-21T03:46:18.509Z,14.15
2023-03-21T03:50:28.127Z,13.00
2023-03-21T03:54:35.059Z,12.95
2023-03-21T03:58:45.187Z,14.00
2023-03-21T04:02:50.296Z,14.55
2023-03-21T04:06:53.776Z,14.02
2023-03-21T04:10:57.194Z,16.00
2023-03-21T04:15:09.485Z,14.45
2023-03-21T04:19:16.194Z,15.93
2023-03-21T04:23:20.332Z,15.43
2023-03-21T04:27:23.349Z,16.25
2023-03-21T04:31:31.186Z,15.05
2023-03-21T04:35:37.740Z,16.15
2023-03-21T04:39:40.864Z,16.75
2023-03-21T04:43:44.801Z,16.45
2023-03-21T04:47:48.318Z,22.25
2023-03-21T04:51:52.878Z,16.95
2023-03-21T04:55:57.752Z,16.23
2023-03-21T05:00:00.459Z,16.73
2023-03-21T05:04:05.707Z,17.10
2023-03-21T05:08:11.987Z,15.43
2023-03-21T05:12:14.917Z,15.68
2023-03-21T05:16:17.864Z,16.60
2023-03-21T05:20:21.352Z,16.15
2023-03-21T05:24:25.808Z,15.02
2023-03-21T05:28:31.828Z,15.07
2023-03-21T05:32:35.070Z,14.90
2023-03-21T05:36:37.893Z,14.35
2023-03-21T05:40:42.321Z,14.75
2023-03-21T05:44:45.223Z,13.68
2023-03-21T05:48:48.112Z,13.73
2023-03-21T05:52:50.750Z,13.27
2023-03-21T05:56:55.282Z,12.93
2023-03-21T06:00:58.362Z,15.38
2023-03-21T06:05:01.111Z,13.30
2023-03-21T06:09:04.452Z,14.23
2023-03-21T06:13:08.480Z,14.93
2023-03-21T06:17:11.564Z,14.13
2023-03-21T06:25:17.479Z,14.68
2023-03-21T06:29:24.683Z,15.90
2023-03-21T06:33:27.794Z,15.10
2023-03-21T06:41:33.226Z,14.43
2023-03-21T06:45:37.517Z,16.17
2023-03-21T06:49:41.313Z,16.73
2023-03-21T06:53:44.797Z,15.43
2023-03-21T06:57:48.053Z,15.27
2023-03-21T07:05:56.302Z,15.63
2023-03-21T07:09:59.557Z,14.50
2023-03-21T07:14:03.011Z,12.63
2023-03-21T07:18:08.989Z,15.35
2023-03-21T07:22:12.106Z,14.25
2023-03-21T07:30:19.728Z,15.00
2023-03-21T07:34:23.999Z,13.80
2023-03-21T07:38:28.314Z,14.13
2023-03-21T07:46:36.116Z,13.70
2023-03-21T07:50:42.009Z,14.52
2023-03-21T07:54:45.093Z,14.50
2023-03-21T07:58:47.947Z,14.35
2023-03-21T08:02:57.896Z,13.27
2023-03-21T08:11:06.360Z,11.95
2023-03-21T08:15:10.348Z,11.57
2023-03-21T08:19:13.363Z,11.57
2023-03-21T08:27:21.824Z,9.93
2023-03-21T08:31:24.799Z,8.57
2023-03-21T08:35:27.962Z,7.85
2023-03-21T08:39:32.650Z,10.02
2023-03-21T08:43:35.802Z,8.45
2023-03-21T08:47:39.255Z,8.55
2023-03-21T08:51:45.930Z,10.38
2023-03-21T08:55:50.679Z,9.15
2023-03-21T08:59:53.707Z,9.90
2023-03-21T09:03:56.628Z,9.40
2023-03-21T09:08:01.720Z,9.20
2023-03-21T09:12:06.887Z,8.75
2023-03-21T09:16:12.737Z,9.35
2023-03-21T09:20:18.959Z,9.48
2023-03-21T09:24:24.555Z,9.20
2023-03-21T09:28:28.951Z,9.93
2023-03-21T09:32:31.908Z,10.05
2023-03-21T09:36:36.544Z,8.48
2023-03-21T09:41:04.604Z,9.57
2023-03-21T09:45:17.693Z,8.68
2023-03-21T09:49:25.772Z,8.95
2023-03-21T09:53:34.438Z,8.90
2023-03-21T09:57:42.128Z,10.23
2023-03-21T10:01:49.647Z,9.82
2023-03-21T10:05:57.575Z,10.88
2023-03-21T10:10:04.506Z,9.38
2023-03-21T10:14:14.689Z,8.40
2023-03-21T10:18:23.983Z,9.30
2023-03-21T10:26:31.189Z,8.98
2023-03-21T10:30:42.506Z,8.85
2023-03-21T10:34:50.141Z,8.40
2023-03-21T10:38:57.099Z,9.18
2023-03-21T10:43:18.920Z,9.43
2023-03-21T10:47:23.920Z,6.97
2023-03-21T10:51:33.288Z,8.93
2023-03-21T10:59:44.759Z,7.93
2023-03-21T11:03:48.556Z,8.60
2023-03-21T11:08:01.587Z,8.05
2023-03-21T11:12:11.579Z,7.93
2023-03-21T11:16:24.250Z,7.18
2023-03-21T11:20:31.096Z,7.05
2023-03-21T11:24:37.540Z,6.68
2023-03-21T11:28:42.120Z,6.78
2023-03-21T11:32:45.420Z,8.60
2023-03-21T11:36:52.646Z,8.27
2023-03-21T11:41:00.985Z,7.05
2023-03-21T11:45:11.676Z,7.68
2023-03-21T11:49:15.006Z,6.03
2023-03-21T11:53:28.346Z,7.25
2023-03-21T11:57:38.924Z,6.03
2023-03-21T12:01:57.446Z,5.38
2023-03-21T12:06:03.466Z,5.78
2023-03-21T12:10:26.922Z,4.65
2023-03-21T12:14:38.691Z,4.20
2023-03-21T12:19:08.219Z,4.97
2023-03-21T12:23:44.173Z,5.13
2023-03-21T12:27:56.047Z,4.78
2023-03-21T12:32:11.321Z,5.40
2023-03-21T12:36:45.176Z,4.40
2023-03-21T12:49:26.284Z,4.20
2023-03-21T12:53:38.150Z,4.40
2023-03-21T12:57:56.449Z,3.88
2023-03-21T13:02:05.227Z,3.60
2023-03-21T13:06:15.060Z,4.32
2023-03-21T13:10:21.506Z,3.60
2023-03-21T13:14:29.816Z,4.90
2023-03-21T13:18:52.002Z,4.35
2023-03-21T13:22:56.679Z,3.90
2023-03-21T13:27:04.490Z,4.88
2023-03-21T13:31:19.789Z,4.38
2023-03-21T13:43:44.970Z,3.95
2023-03-21T13:47:55.849Z,4.03
2023-03-21T13:52:00.465Z,4.20
2023-03-21T13:56:23.012Z,4.68
2023-03-21T14:00:30.825Z,5.40
2023-03-21T14:04:42.404Z,5.53
2023-03-21T14:08:49.207Z,4.50
2023-03-21T14:12:55.271Z,4.57
2023-03-21T14:16:58.089Z,5.15
2023-03-21T14:21:02.258Z,5.03
2023-03-21T14:25:09.404Z,5.30
2023-03-21T14:29:26.028Z,5.47
2023-03-21T14:33:34.303Z,4.97
2023-03-21T14:37:40.826Z,4.82
2023-03-21T14:41:48.980Z,5.05
2023-03-21T14:45:55.092Z,4.43
2023-03-21T14:49:58.838Z,4.95
2023-03-21T14:54:01.948Z,4.90
2023-03-21T14:58:06.709Z,4.68
2023-03-21T15:02:20.947Z,5.32
2023-03-21T15:06:24.277Z,4.30
2023-03-21T15:10:29.354Z,5.07
2023-03-21T15:14:36.604Z,5.07
2023-03-21T15:18:42.356Z,4.35
2023-03-21T15:23:09.326Z,4.18
2023-03-21T15:27:18.834Z,4.28
2023-03-21T15:31:23.641Z,3.15
2023-03-21T15:35:33.903Z,3.40
2023-03-21T15:39:37.261Z,3.55
2023-03-21T15:43:41.855Z,4.13
2023-03-21T15:47:53.256Z,3.65
2023-03-21T15:52:02.820Z,4.22
2023-03-21T16:00:24.904Z,3.45
2023-03-21T16:04:27.871Z,3.97
2023-03-21T16:08:37.557Z,3.65
2023-03-21T16:12:40.166Z,3.63
2023-03-21T16:16:43.060Z,3.63
2023-03-21T16:24:51.763Z,3.53
2023-03-21T16:28:55.122Z,3.83
2023-03-21T16:32:58.266Z,3.80
2023-03-21T16:37:01.313Z,4.78
2023-03-21T16:41:11.029Z,4.18
2023-03-21T16:45:14.035Z,4.93
2023-03-21T16:49:20.545Z,4.38
2023-03-21T16:53:23.778Z,4.07
2023-03-21T17:01:32.240Z,4.68
2023-03-21T17:05:35.546Z,12.82
2023-03-21T17:09:38.504Z,7.90
2023-03-21T17:13:42.731Z,11.20
2023-03-21T17:17:46.158Z,12.13
2023-03-21T17:21:48.973Z,11.13
2023-03-21T17:25:51.913Z,11.80
2023-03-21T17:29:58.419Z,11.55
2023-03-21T17:34:03.504Z,11.38
2023-03-21T17:38:13.059Z,11.75
2023-03-21T17:42:18.318Z,14.63
2023-03-21T17:46:24.311Z,12.82
2023-03-21T17:50:34.258Z,20.63
2023-03-21T17:54:37.253Z,17.30
2023-03-21T18:02:44.685Z,18.17
2023-03-21T18:06:47.894Z,16.25
2023-03-21T18:10:50.743Z,19.65
2023-03-21T18:14:53.835Z,23.92
2023-03-21T18:18:58.478Z,20.60
2023-03-21T18:23:01.640Z,19.20
2023-03-21T18:27:05.006Z,18.92
2023-03-21T18:31:16.753Z,18.48
2023-03-21T18:35:24.573Z,17.42
2023-03-21T18:39:27.962Z,16.38
2023-03-21T18:47:54.156Z,8.90
2023-03-21T18:51:58.452Z,8.02
2023-03-21T18:56:09.603Z,6.90
2023-03-21T19:00:17.567Z,6.78
2023-03-21T19:04:28.697Z,9.52
2023-03-21T19:08:34.869Z,16.70
2023-03-21T19:12:37.764Z,11.30
2023-03-21T19:17:26.472Z,8.02
2023-03-21T19:21:06.979Z,9.20
2023-03-21T19:25:14.581Z,12.23
2023-03-21T19:29:17.716Z,17.80
2023-03-21T19:33:21.291Z,12.15
2023-03-21T19:37:24.577Z,13.20
2023-03-21T19:41:29.632Z,13.43
2023-03-21T19:45:32.695Z,23.80
2023-03-21T19:50:14.875Z,17.95
2023-03-21T19:53:58.691Z,17.20
2023-03-21T19:58:02.983Z,15.05
2023-03-21T20:02:30.782Z,12.52
2023-03-21T20:06:29.348Z,15.55
2023-03-21T20:10:32.237Z,15.85
2023-03-21T20:14:37.233Z,19.05
2023-03-21T20:18:40.484Z,19.90
2023-03-21T20:23:05.623Z,21.17
2023-03-21T20:27:07.069Z,21.90
2023-03-21T20:31:11.629Z,21.90
2023-03-21T20:35:25.370Z,27.33
2023-03-21T20:39:39.803Z,30.58
2023-03-21T20:48:07.239Z,36.20
2023-03-21T20:56:32.946Z,38.03
2023-03-21T21:00:37.274Z,35.80
2023-03-21T21:04:59.925Z,35.58
2023-03-21T21:09:05.858Z,41.47
2023-03-21T21:13:08.743Z,39.75
2023-03-21T21:17:28.386Z,37.47
2023-03-21T21:21:36.398Z,37.35
2023-03-21T21:25:39.564Z,36.17
2023-03-21T21:29:43.806Z,33.33
2023-03-21T21:33:50.189Z,34.58
2023-03-21T21:37:55.049Z,35.28
2023-03-21T21:41:57.867Z,32.38
2023-03-21T21:46:01.685Z,33.83
2023-03-21T21:50:06.090Z,33.90
2023-03-21T21:54:11.243Z,35.08
2023-03-21T21:58:14.127Z,35.35
2023-03-21T22:02:17.398Z,34.42
2023-03-21T22:06:20.429Z,34.33
2023-03-21T22:10:29.773Z,34.90
2023-03-21T22:14:32.507Z,37.10
2023-03-21T22:18:36.275Z,34.70
2023-03-21T22:26:43.571Z,31.67
2023-03-21T22:30:46.654Z,30.27
2023-03-21T22:34:49.755Z,27.42
2023-03-21T22:38:52.908Z,28.77
2023-03-21T22:42:57.424Z,28.67
2023-03-21T22:47:00.400Z,29.60
2023-03-21T22:51:03.751Z,30.38
2023-03-21T22:55:09.984Z,27.90
2023-03-21T22:59:14.461Z,28.35
2023-03-21T23:03:17.889Z,26.58
2023-03-21T23:07:21.094Z,27.35
2023-03-21T23:11:27.393Z,29.48
2023-03-21T23:15:32.196Z,28.25
2023-03-21T23:19:35.153Z,25.83
2023-03-21T23:23:38.330Z,25.85
2023-03-21T23:27:41.571Z,25.83
2023-03-21T23:31:46.188Z,27.15
2023-03-21T23:35:49.717Z,27.42
2023-03-21T23:43:58.602Z,22.83
2023-03-21T23:48:03.528Z,22.58
2023-03-21T23:52:06.928Z,25.13
2023-03-21T23:56:17.112Z,25.50
